Terminal Aerodrome Forecast
Issued by NWS

Home | Current Version | Previous Version | Text Only | Print | Product List | Glossary On
Versions: 1 2 3 4 5 6 7 8 9 10 11 12 13 14 15 16 17 18
000
FTUS45 KTFX 251144
TAFHLN
TAF
KHLN 251144Z 2512/2612 32007KT P6SM VCSH SCT020 BKN050
     FM251700 31008KT P6SM SCT040 BKN070
     FM252200 01007KT P6SM VCSH SCT030 BKN060 PROB30 2522/2603 -SHRA
      BKN030
     FM260900 34011KT 5SM -SN BKN025=

USA.gov is the U.S. government's official web portal to all federal, state and local government web resources and services.